createdAt,value
2023-05-02T00:00:45.736Z,52.6
2023-05-02T00:06:37.789Z,49.8
2023-05-02T00:13:39.764Z,51.3
2023-05-02T00:19:30.289Z,59.6
2023-05-02T00:25:22.325Z,57.4
2023-05-02T00:31:16.978Z,57.3
2023-05-02T00:37:09.162Z,54.7
2023-05-02T00:43:03.800Z,60.9
2023-05-02T00:48:55.634Z,56.8
2023-05-02T00:54:47.879Z,59.1
2023-05-02T01:00:39.716Z,55
2023-05-02T01:06:31.815Z,55.7
2023-05-02T01:12:24.195Z,58.5
2023-05-02T01:18:15.824Z,58
2023-05-02T01:24:08.899Z,61.2
2023-05-02T01:30:01.784Z,56.4
2023-05-02T01:35:54.270Z,63.8
2023-05-02T01:41:47.420Z,70.1
2023-05-02T01:47:39.498Z,68.8
2023-05-02T01:53:32.020Z,69.1
2023-05-02T01:59:24.548Z,69.5
2023-05-02T02:05:16.292Z,71.2
2023-05-02T02:11:08.364Z,69.1
2023-05-02T02:17:00.166Z,76.6
2023-05-02T02:22:52.596Z,79
2023-05-02T02:28:44.413Z,82.2
2023-05-02T02:34:36.640Z,84.2
2023-05-02T02:40:28.022Z,88.7
2023-05-02T02:46:19.887Z,90.3
2023-05-02T02:52:11.297Z,116.6
2023-05-02T02:58:03.657Z,108.7
2023-05-02T03:03:56.054Z,109.1
2023-05-02T03:09:48.277Z,107.8
2023-05-02T03:15:41.054Z,93.2
2023-05-02T03:21:34.907Z,85.3
2023-05-02T03:27:26.366Z,77.2
2023-05-02T03:33:19.687Z,78.8
2023-05-02T03:39:12.071Z,75.7
2023-05-02T03:45:04.396Z,77.5
2023-05-02T03:50:56.304Z,84.6
2023-05-02T03:56:47.973Z,82.3
2023-05-02T04:02:40.744Z,83.8
2023-05-02T04:08:33.118Z,86.8
2023-05-02T04:14:25.374Z,80
2023-05-02T04:20:18.677Z,75.6
2023-05-02T04:26:11.081Z,76.3
2023-05-02T04:32:07.515Z,82.3
2023-05-02T04:37:59.401Z,86.6
2023-05-02T04:43:51.545Z,98.5
2023-05-02T04:49:43.854Z,100.7
2023-05-02T04:55:36.077Z,91.1
2023-05-02T05:01:28.173Z,87
2023-05-02T05:07:20.238Z,85.5
2023-05-02T05:13:12.498Z,78.7
2023-05-02T05:19:04.584Z,76.6
2023-05-02T05:24:57.183Z,76.5
2023-05-02T05:30:48.983Z,78.6
2023-05-02T05:36:41.227Z,76.4
2023-05-02T05:42:33.351Z,76.2
2023-05-02T05:48:25.000Z,86
2023-05-02T05:54:18.060Z,91.8
2023-05-02T06:00:10.004Z,92
2023-05-02T06:06:03.892Z,92
2023-05-02T06:11:57.092Z,98.7
2023-05-02T06:17:48.904Z,95.7
2023-05-02T06:23:41.402Z,92.7
2023-05-02T06:29:34.725Z,91.5
2023-05-02T06:35:28.269Z,86.6
2023-05-02T06:41:22.873Z,81.2
2023-05-02T06:47:13.261Z,73.8
2023-05-02T06:53:04.833Z,73.5
2023-05-02T06:58:56.703Z,70.1
2023-05-02T07:04:50.077Z,65.8
2023-05-02T07:10:42.515Z,56.7
2023-05-02T07:16:34.921Z,54.7
2023-05-02T07:22:27.020Z,54.6
2023-05-02T07:28:17.282Z,54.8
2023-05-02T07:34:09.540Z,54.8
2023-05-02T07:40:03.855Z,49.2
2023-05-02T07:45:58.402Z,52.6
2023-05-02T07:51:50.887Z,48.6
2023-05-02T07:57:43.095Z,43.6
2023-05-02T08:03:37.867Z,43.6
2023-05-02T08:09:31.896Z,39.8
2023-05-02T08:15:24.881Z,45.2
2023-05-02T08:21:16.220Z,41.4
2023-05-02T08:27:08.081Z,40.7
2023-05-02T08:33:03.612Z,44.3
2023-05-02T08:38:55.427Z,38.9
2023-05-02T08:44:47.826Z,39.7
2023-05-02T08:50:40.548Z,33.5
2023-05-02T08:56:33.180Z,34.7
2023-05-02T09:02:26.136Z,33.6
2023-05-02T09:08:18.008Z,25.7
2023-05-02T09:14:09.819Z,35.5
2023-05-02T09:20:02.158Z,47.6
2023-05-02T09:25:53.845Z,49.7
2023-05-02T09:31:59.724Z,49.1
2023-05-02T09:37:48.998Z,47.2
2023-05-02T09:43:38.771Z,51.3
2023-05-02T09:49:30.667Z,49.8
2023-05-02T09:55:21.205Z,43.9
2023-05-02T10:01:11.826Z,49.3
2023-05-02T10:07:03.608Z,44.5
2023-05-02T10:12:57.107Z,39.5
2023-05-02T10:18:48.664Z,37.2
2023-05-02T10:24:40.484Z,39.6
2023-05-02T10:30:35.349Z,29.4
2023-05-02T10:36:26.955Z,19.8
2023-05-02T10:42:18.699Z,19.5
2023-05-02T10:48:10.418Z,27.8
2023-05-02T10:54:07.468Z,27.5
2023-05-02T10:59:59.971Z,33.4
2023-05-02T11:05:51.734Z,31.3
2023-05-02T11:11:43.704Z,29.7
2023-05-02T11:17:36.469Z,34.3
2023-05-02T11:23:29.049Z,31.2
2023-05-02T11:29:25.217Z,31.6
2023-05-02T11:35:17.531Z,30.1
2023-05-02T11:41:09.618Z,29.4
2023-05-02T11:47:02.423Z,29
2023-05-02T11:53:08.771Z,28.9
2023-05-02T11:59:26.510Z,27.9
2023-05-02T12:05:15.907Z,29.8
2023-05-02T12:11:07.596Z,27.8
2023-05-02T12:16:58.560Z,23.1
2023-05-02T12:22:50.134Z,25.6
2023-05-02T12:28:42.048Z,24.7
2023-05-02T12:34:34.392Z,25.6
2023-05-02T12:40:27.121Z,23.9
2023-05-02T12:46:18.676Z,25.5
2023-05-02T12:52:10.730Z,20.6
2023-05-02T12:58:02.126Z,23.3
2023-05-02T13:03:54.361Z,24.2
2023-05-02T13:09:45.358Z,24.7
2023-05-02T13:15:36.419Z,23.1
2023-05-02T13:21:27.429Z,24.5
2023-05-02T13:27:17.858Z,21.9
2023-05-02T13:33:09.274Z,21.9
2023-05-02T13:38:59.930Z,19
2023-05-02T13:44:49.477Z,15.3
2023-05-02T13:50:39.604Z,12.6
2023-05-02T13:56:30.112Z,12.5
2023-05-02T14:02:21.082Z,11.3
2023-05-02T14:08:12.262Z,11.8
2023-05-02T14:14:03.514Z,16.3
2023-05-02T14:19:56.720Z,19.8
2023-05-02T14:25:48.445Z,19.2
2023-05-02T14:31:41.032Z,17.6
2023-05-02T14:37:32.530Z,16.6
2023-05-02T14:43:26.616Z,18.9
2023-05-02T14:49:18.795Z,20.8
2023-05-02T14:55:11.578Z,17.2
2023-05-02T15:01:03.960Z,16.2
2023-05-02T15:06:57.087Z,16.2
2023-05-02T15:12:50.677Z,18.5
2023-05-02T15:18:42.802Z,16.8
2023-05-02T15:24:36.224Z,16.4
2023-05-02T15:30:28.869Z,15.8
2023-05-02T15:36:20.505Z,20.4
2023-05-02T15:42:12.732Z,16.2
2023-05-02T15:48:05.786Z,14
2023-05-02T15:53:57.941Z,15.4
2023-05-02T16:01:00.547Z,13.6
2023-05-02T16:06:54.689Z,15.4
2023-05-02T16:12:47.567Z,15.6
2023-05-02T16:18:41.744Z,17.9
2023-05-02T16:24:34.853Z,12.3
2023-05-02T16:30:29.653Z,14.1
2023-05-02T16:36:24.430Z,15.8
2023-05-02T16:42:25.819Z,14.2
2023-05-02T16:48:26.120Z,15.8
2023-05-02T16:54:19.824Z,15.5
2023-05-02T17:00:14.720Z,15.1
2023-05-02T17:06:08.057Z,12.9
2023-05-02T17:12:02.835Z,12.3
2023-05-02T17:17:57.211Z,13.6
2023-05-02T17:23:48.636Z,12.8
2023-05-02T17:29:41.285Z,13.9
2023-05-02T17:35:33.053Z,11.9
2023-05-02T17:41:26.396Z,11.6
2023-05-02T17:47:22.909Z,12.1
2023-05-02T17:53:14.674Z,13.3
2023-05-02T17:59:05.392Z,12.2
2023-05-02T18:04:58.558Z,14.8
2023-05-02T18:10:58.769Z,10.9
2023-05-02T18:16:49.196Z,11.6
2023-05-02T18:22:44.698Z,13.6
2023-05-02T18:28:48.556Z,14.2
2023-05-02T18:34:46.920Z,13
2023-05-02T18:40:49.979Z,12.7
2023-05-02T18:46:50.133Z,14.9
2023-05-02T18:52:42.014Z,10.4
2023-05-02T18:58:33.352Z,13
2023-05-02T19:04:25.945Z,15.3
2023-05-02T19:10:19.266Z,13.5
2023-05-02T19:16:12.682Z,12.8
2023-05-02T19:22:03.861Z,13.3
2023-05-02T19:27:55.627Z,12.9
2023-05-02T19:33:44.880Z,13.8
2023-05-02T19:39:39.025Z,14.3
2023-05-02T19:45:32.844Z,13.6
2023-05-02T19:51:23.582Z,16.7
2023-05-02T19:57:15.494Z,35.8
2023-05-02T20:03:14.312Z,35.2
2023-05-02T20:09:05.305Z,15.4
2023-05-02T20:14:55.992Z,12.1
2023-05-02T20:20:46.465Z,13.1
2023-05-02T20:26:39.494Z,13.1
2023-05-02T20:32:32.201Z,13.5
2023-05-02T20:38:29.856Z,13.9
2023-05-02T20:44:23.342Z,14
2023-05-02T20:50:14.548Z,13.6
2023-05-02T20:56:11.863Z,20.7
2023-05-02T21:02:04.536Z,23.4
2023-05-02T21:07:58.057Z,17.4
2023-05-02T21:13:49.498Z,16.4
2023-05-02T21:19:40.662Z,26.5
2023-05-02T21:25:34.430Z,21.7
2023-05-02T21:31:25.718Z,20.8
2023-05-02T21:37:19.739Z,15.9
2023-05-02T21:43:10.674Z,16.3
2023-05-02T21:49:03.045Z,19.7
2023-05-02T21:54:55.086Z,16.9
2023-05-02T22:00:46.696Z,15.7
2023-05-02T22:06:40.100Z,15.8
2023-05-02T22:12:30.732Z,16.1
2023-05-02T22:18:23.652Z,17
2023-05-02T22:24:14.853Z,17.1
2023-05-02T22:30:08.442Z,17.4
2023-05-02T22:35:59.041Z,16.4
2023-05-02T22:41:50.531Z,17.3
2023-05-02T22:47:44.547Z,20.9
2023-05-02T22:53:36.055Z,18.3
2023-05-02T22:59:27.735Z,16
2023-05-02T23:05:20.721Z,15.8
2023-05-02T23:11:12.890Z,14.7
2023-05-02T23:17:03.891Z,17
2023-05-02T23:22:55.841Z,18.5
2023-05-02T23:28:47.199Z,16.2
2023-05-02T23:34:38.661Z,18.4
2023-05-02T23:40:34.508Z,20.2
2023-05-02T23:46:24.360Z,16.7
2023-05-02T23:52:15.365Z,21.1
2023-05-02T23:58:06.643Z,17.9
